sensor_id;sensor_type;location;lat;lon;timestamp;P1;durP1;ratioP1;P2;durP2;ratioP2
13710;SDS011;6927;51.256;9.410;2023-10-09T00:01:39;1999.90;;;999.90;;
13710;SDS011;6927;51.256;9.410;2023-10-09T00:04:09;1999.90;;;999.90;;
13710;SDS011;6927;51.256;9.410;2023-10-09T00:06:36;1999.90;;;999.90;;
13710;SDS011;6927;51.256;9.410;2023-10-09T00:09:05;1999.90;;;999.90;;
13710;SDS011;6927;51.256;9.410;2023-10-09T00:11:54;1999.90;;;999.90;;
13710;SDS011;6927;51.256;9.410;2023-10-09T00:14:31;1999.90;;;999.90;;
13710;SDS011;6927;51.256;9.410;2023-10-09T00:16:59;1999.90;;;999.90;;
13710;SDS011;6927;51.256;9.410;2023-10-09T00:19:37;1999.90;;;999.90;;
13710;SDS011;6927;51.256;9.410;2023-10-09T00:22:02;1999.90;;;999.90;;
13710;SDS011;6927;51.256;9.410;2023-10-09T00:24:42;1999.90;;;999.90;;
13710;SDS011;6927;51.256;9.410;2023-10-09T00:27:10;1999.90;;;999.90;;
13710;SDS011;6927;51.256;9.410;2023-10-09T00:29:37;1999.90;;;999.90;;
13710;SDS011;6927;51.256;9.410;2023-10-09T00:32:13;1999.90;;;999.90;;
13710;SDS011;6927;51.256;9.410;2023-10-09T00:34:52;1999.90;;;999.90;;
13710;SDS011;6927;51.256;9.410;2023-10-09T00:37:18;1999.90;;;999.90;;
13710;SDS011;6927;51.256;9.410;2023-10-09T00:39:59;1999.90;;;999.90;;
13710;SDS011;6927;51.256;9.410;2023-10-09T00:42:24;1999.90;;;999.90;;
13710;SDS011;6927;51.256;9.410;2023-10-09T00:44:54;1999.90;;;999.90;;
13710;SDS011;6927;51.256;9.410;2023-10-09T00:47:21;1999.90;;;999.90;;
13710;SDS011;6927;51.256;9.410;2023-10-09T00:52:34;1999.90;;;999.90;;
13710;SDS011;6927;51.256;9.410;2023-10-09T00:55:04;1999.90;;;999.90;;
13710;SDS011;6927;51.256;9.410;2023-10-09T00:57:39;1999.90;;;999.90;;
13710;SDS011;6927;51.256;9.410;2023-10-09T01:00:21;1999.90;;;999.90;;
13710;SDS011;6927;51.256;9.410;2023-10-09T01:02:57;1999.90;;;999.90;;
13710;SDS011;6927;51.256;9.410;2023-10-09T01:05:47;1999.90;;;999.90;;
13710;SDS011;6927;51.256;9.410;2023-10-09T01:08:20;1999.90;;;999.90;;
13710;SDS011;6927;51.256;9.410;2023-10-09T01:11:05;1999.90;;;999.90;;
13710;SDS011;6927;51.256;9.410;2023-10-09T01:13:35;1999.90;;;999.90;;
13710;SDS011;6927;51.256;9.410;2023-10-09T01:16:17;1999.90;;;999.90;;
13710;SDS011;6927;51.256;9.410;2023-10-09T01:18:47;1999.90;;;999.90;;
13710;SDS011;6927;51.256;9.410;2023-10-09T01:21:17;1999.90;;;999.90;;
13710;SDS011;6927;51.256;9.410;2023-10-09T01:23:48;1999.90;;;999.90;;
13710;SDS011;6927;51.256;9.410;2023-10-09T01:26:33;1999.90;;;999.90;;
13710;SDS011;6927;51.256;9.410;2023-10-09T01:29:09;1999.90;;;999.90;;
13710;SDS011;6927;51.256;9.410;2023-10-09T01:31:39;1999.90;;;999.90;;
13710;SDS011;6927;51.256;9.410;2023-10-09T01:34:19;1999.90;;;999.90;;
13710;SDS011;6927;51.256;9.410;2023-10-09T01:37:03;1999.90;;;999.90;;
13710;SDS011;6927;51.256;9.410;2023-10-09T01:39:50;1999.90;;;999.90;;
13710;SDS011;6927;51.256;9.410;2023-10-09T01:42:18;1999.90;;;999.90;;
13710;SDS011;6927;51.256;9.410;2023-10-09T01:44:59;1999.90;;;999.90;;
13710;SDS011;6927;51.256;9.410;2023-10-09T01:47:34;1999.90;;;999.90;;
13710;SDS011;6927;51.256;9.410;2023-10-09T01:50:02;1999.90;;;999.90;;
13710;SDS011;6927;51.256;9.410;2023-10-09T01:52:44;1999.90;;;999.90;;
13710;SDS011;6927;51.256;9.410;2023-10-09T01:55:10;1999.90;;;999.90;;
13710;SDS011;6927;51.256;9.410;2023-10-09T01:57:40;1999.90;;;999.90;;
13710;SDS011;6927;51.256;9.410;2023-10-09T02:00:09;1999.90;;;999.90;;
13710;SDS011;6927;51.256;9.410;2023-10-09T02:02:41;1999.90;;;999.90;;
13710;SDS011;6927;51.256;9.410;2023-10-09T02:05:10;1999.90;;;999.90;;
13710;SDS011;6927;51.256;9.410;2023-10-09T02:07:49;1999.90;;;999.90;;
13710;SDS011;6927;51.256;9.410;2023-10-09T02:12:55;1999.90;;;999.90;;
13710;SDS011;6927;51.256;9.410;2023-10-09T02:18:47;1999.90;;;999.90;;
13710;SDS011;6927;51.256;9.410;2023-10-09T02:21:20;1999.90;;;999.90;;
13710;SDS011;6927;51.256;9.410;2023-10-09T02:24:02;1999.90;;;999.90;;
13710;SDS011;6927;51.256;9.410;2023-10-09T02:26:48;1999.90;;;999.90;;
13710;SDS011;6927;51.256;9.410;2023-10-09T02:29:16;1999.90;;;999.90;;
13710;SDS011;6927;51.256;9.410;2023-10-09T02:31:48;1999.90;;;999.90;;
13710;SDS011;6927;51.256;9.410;2023-10-09T02:34:16;1999.90;;;999.90;;
13710;SDS011;6927;51.256;9.410;2023-10-09T02:36:46;1999.90;;;999.90;;
13710;SDS011;6927;51.256;9.410;2023-10-09T02:39:22;1999.90;;;999.90;;
13710;SDS011;6927;51.256;9.410;2023-10-09T02:41:57;1999.90;;;999.90;;
13710;SDS011;6927;51.256;9.410;2023-10-09T02:44:31;1999.90;;;999.90;;
13710;SDS011;6927;51.256;9.410;2023-10-09T02:47:05;1999.90;;;999.90;;
13710;SDS011;6927;51.256;9.410;2023-10-09T02:49:37;1999.90;;;999.90;;
13710;SDS011;6927;51.256;9.410;2023-10-09T02:52:04;1999.90;;;999.90;;
13710;SDS011;6927;51.256;9.410;2023-10-09T02:54:32;1999.90;;;999.90;;
13710;SDS011;6927;51.256;9.410;2023-10-09T02:57:06;1999.90;;;999.90;;
13710;SDS011;6927;51.256;9.410;2023-10-09T02:59:35;1999.90;;;999.90;;
13710;SDS011;6927;51.256;9.410;2023-10-09T03:02:06;1999.90;;;999.90;;
13710;SDS011;6927;51.256;9.410;2023-10-09T03:04:32;1999.90;;;999.90;;
13710;SDS011;6927;51.256;9.410;2023-10-09T03:06:58;1999.90;;;999.90;;
13710;SDS011;6927;51.256;9.410;2023-10-09T03:09:24;1999.90;;;999.90;;
13710;SDS011;6927;51.256;9.410;2023-10-09T03:11:54;1999.90;;;999.90;;
13710;SDS011;6927;51.256;9.410;2023-10-09T03:14:27;1999.90;;;999.90;;
13710;SDS011;6927;51.256;9.410;2023-10-09T03:16:56;1999.90;;;999.90;;
13710;SDS011;6927;51.256;9.410;2023-10-09T03:19:24;1999.90;;;999.90;;
13710;SDS011;6927;51.256;9.410;2023-10-09T03:21:51;1999.90;;;999.90;;
13710;SDS011;6927;51.256;9.410;2023-10-09T03:24:18;1999.90;;;999.90;;
13710;SDS011;6927;51.256;9.410;2023-10-09T03:26:45;1999.90;;;999.90;;
13710;SDS011;6927;51.256;9.410;2023-10-09T03:29:10;1999.90;;;999.90;;
13710;SDS011;6927;51.256;9.410;2023-10-09T03:31:36;1999.90;;;999.90;;
13710;SDS011;6927;51.256;9.410;2023-10-09T03:34:03;1999.90;;;999.90;;
13710;SDS011;6927;51.256;9.410;2023-10-09T03:36:29;1999.90;;;999.90;;
13710;SDS011;6927;51.256;9.410;2023-10-09T03:39:03;1999.90;;;999.90;;
13710;SDS011;6927;51.256;9.410;2023-10-09T03:41:43;1999.90;;;999.90;;
13710;SDS011;6927;51.256;9.410;2023-10-09T03:44:11;1999.90;;;999.90;;
13710;SDS011;6927;51.256;9.410;2023-10-09T03:46:43;1999.90;;;999.90;;
13710;SDS011;6927;51.256;9.410;2023-10-09T03:49:11;1999.90;;;999.90;;
13710;SDS011;6927;51.256;9.410;2023-10-09T03:51:38;1999.90;;;999.90;;
13710;SDS011;6927;51.256;9.410;2023-10-09T03:54:04;1999.90;;;999.90;;
13710;SDS011;6927;51.256;9.410;2023-10-09T03:56:34;1999.90;;;999.90;;
13710;SDS011;6927;51.256;9.410;2023-10-09T03:59:00;1999.90;;;999.90;;
13710;SDS011;6927;51.256;9.410;2023-10-09T04:01:29;1999.90;;;999.90;;
13710;SDS011;6927;51.256;9.410;2023-10-09T04:03:55;1999.90;;;999.90;;
13710;SDS011;6927;51.256;9.410;2023-10-09T04:06:24;1999.90;;;999.90;;
13710;SDS011;6927;51.256;9.410;2023-10-09T04:09:06;1999.90;;;999.90;;
13710;SDS011;6927;51.256;9.410;2023-10-09T04:14:34;1999.90;;;999.90;;
13710;SDS011;6927;51.256;9.410;2023-10-09T04:17:01;1999.90;;;999.90;;
13710;SDS011;6927;51.256;9.410;2023-10-09T04:19:31;1999.90;;;999.90;;
13710;SDS011;6927;51.256;9.410;2023-10-09T04:22:06;1999.90;;;999.90;;
13710;SDS011;6927;51.256;9.410;2023-10-09T04:24:34;1999.90;;;999.90;;
13710;SDS011;6927;51.256;9.410;2023-10-09T04:27:06;1999.90;;;999.90;;
13710;SDS011;6927;51.256;9.410;2023-10-09T04:29:33;1999.90;;;999.90;;
13710;SDS011;6927;51.256;9.410;2023-10-09T04:32:11;1999.90;;;999.90;;
13710;SDS011;6927;51.256;9.410;2023-10-09T04:34:41;1999.90;;;999.90;;
13710;SDS011;6927;51.256;9.410;2023-10-09T04:37:42;1999.90;;;999.90;;
13710;SDS011;6927;51.256;9.410;2023-10-09T04:40:10;1999.90;;;999.90;;
13710;SDS011;6927;51.256;9.410;2023-10-09T04:42:37;1999.90;;;999.90;;
13710;SDS011;6927;51.256;9.410;2023-10-09T04:45:03;1999.90;;;999.90;;
13710;SDS011;6927;51.256;9.410;2023-10-09T04:47:33;1999.90;;;999.90;;
13710;SDS011;6927;51.256;9.410;2023-10-09T04:50:07;1999.90;;;999.90;;
13710;SDS011;6927;51.256;9.410;2023-10-09T04:52:39;1999.90;;;999.90;;
13710;SDS011;6927;51.256;9.410;2023-10-09T04:55:05;1999.90;;;999.90;;
13710;SDS011;6927;51.256;9.410;2023-10-09T04:57:35;1999.90;;;999.90;;
13710;SDS011;6927;51.256;9.410;2023-10-09T05:02:50;1999.90;;;999.90;;
13710;SDS011;6927;51.256;9.410;2023-10-09T05:05:22;1999.90;;;999.90;;
13710;SDS011;6927;51.256;9.410;2023-10-09T05:08:07;1999.90;;;999.90;;
13710;SDS011;6927;51.256;9.410;2023-10-09T05:10:47;1999.90;;;999.90;;
13710;SDS011;6927;51.256;9.410;2023-10-09T05:13:22;1999.90;;;999.90;;
13710;SDS011;6927;51.256;9.410;2023-10-09T05:18:52;1999.90;;;999.90;;
13710;SDS011;6927;51.256;9.410;2023-10-09T05:21:25;1999.90;;;999.90;;
13710;SDS011;6927;51.256;9.410;2023-10-09T05:23:56;1999.90;;;999.90;;
13710;SDS011;6927;51.256;9.410;2023-10-09T05:26:37;1999.90;;;999.90;;
13710;SDS011;6927;51.256;9.410;2023-10-09T05:29:13;1999.90;;;999.90;;
13710;SDS011;6927;51.256;9.410;2023-10-09T05:34:25;1999.90;;;999.90;;
13710;SDS011;6927;51.256;9.410;2023-10-09T05:37:04;1999.90;;;999.90;;
13710;SDS011;6927;51.256;9.410;2023-10-09T05:39:45;1999.90;;;999.90;;
13710;SDS011;6927;51.256;9.410;2023-10-09T05:42:32;1999.90;;;999.90;;
13710;SDS011;6927;51.256;9.410;2023-10-09T05:45:01;1999.90;;;999.90;;
13710;SDS011;6927;51.256;9.410;2023-10-09T05:47:34;1999.90;;;999.90;;
13710;SDS011;6927;51.256;9.410;2023-10-09T05:49:59;1999.90;;;999.90;;
13710;SDS011;6927;51.256;9.410;2023-10-09T05:52:28;1999.90;;;999.90;;
13710;SDS011;6927;51.256;9.410;2023-10-09T05:55:03;1999.90;;;999.90;;
13710;SDS011;6927;51.256;9.410;2023-10-09T05:57:48;1999.90;;;999.90;;
13710;SDS011;6927;51.256;9.410;2023-10-09T06:00:33;1999.90;;;999.90;;
13710;SDS011;6927;51.256;9.410;2023-10-09T06:03:17;1999.90;;;999.90;;
13710;SDS011;6927;51.256;9.410;2023-10-09T06:05:49;1999.90;;;999.90;;
13710;SDS011;6927;51.256;9.410;2023-10-09T06:08:27;1999.90;;;999.90;;
13710;SDS011;6927;51.256;9.410;2023-10-09T06:11:06;1999.90;;;999.90;;
13710;SDS011;6927;51.256;9.410;2023-10-09T06:13:51;1999.90;;;999.90;;
13710;SDS011;6927;51.256;9.410;2023-10-09T06:16:35;1999.90;;;999.90;;
13710;SDS011;6927;51.256;9.410;2023-10-09T06:19:13;1999.90;;;999.90;;
13710;SDS011;6927;51.256;9.410;2023-10-09T06:21:45;1999.90;;;999.90;;
13710;SDS011;6927;51.256;9.410;2023-10-09T06:24:17;1999.90;;;999.90;;
13710;SDS011;6927;51.256;9.410;2023-10-09T06:26:54;1999.90;;;999.90;;
13710;SDS011;6927;51.256;9.410;2023-10-09T06:29:25;1999.90;;;999.90;;
13710;SDS011;6927;51.256;9.410;2023-10-09T06:32:05;1999.90;;;999.90;;
13710;SDS011;6927;51.256;9.410;2023-10-09T06:37:40;1999.90;;;999.90;;
13710;SDS011;6927;51.256;9.410;2023-10-09T06:40:25;1999.90;;;999.90;;
13710;SDS011;6927;51.256;9.410;2023-10-09T06:43:01;1999.90;;;999.90;;
13710;SDS011;6927;51.256;9.410;2023-10-09T06:45:45;1999.90;;;999.90;;
13710;SDS011;6927;51.256;9.410;2023-10-09T06:48:19;1999.90;;;999.90;;
13710;SDS011;6927;51.256;9.410;2023-10-09T06:51:03;1999.90;;;999.90;;
13710;SDS011;6927;51.256;9.410;2023-10-09T06:53:37;1999.90;;;999.90;;
13710;SDS011;6927;51.256;9.410;2023-10-09T06:56:19;1999.90;;;999.90;;
13710;SDS011;6927;51.256;9.410;2023-10-09T06:58:51;1999.90;;;999.90;;
13710;SDS011;6927;51.256;9.410;2023-10-09T07:01:20;1999.90;;;999.90;;
13710;SDS011;6927;51.256;9.410;2023-10-09T07:03:52;1999.90;;;999.90;;
13710;SDS011;6927;51.256;9.410;2023-10-09T07:06:19;1999.90;;;999.90;;
13710;SDS011;6927;51.256;9.410;2023-10-09T07:08:51;1999.90;;;999.90;;
13710;SDS011;6927;51.256;9.410;2023-10-09T07:14:20;1999.90;;;999.90;;
13710;SDS011;6927;51.256;9.410;2023-10-09T07:16:55;1999.90;;;999.90;;
13710;SDS011;6927;51.256;9.410;2023-10-09T07:19:29;1999.90;;;999.90;;
13710;SDS011;6927;51.256;9.410;2023-10-09T07:22:04;1999.90;;;999.90;;
13710;SDS011;6927;51.256;9.410;2023-10-09T07:24:41;1999.90;;;999.90;;
13710;SDS011;6927;51.256;9.410;2023-10-09T07:27:09;1999.90;;;999.90;;
13710;SDS011;6927;51.256;9.410;2023-10-09T07:29:39;1999.90;;;999.90;;
13710;SDS011;6927;51.256;9.410;2023-10-09T07:32:14;1999.90;;;999.90;;
13710;SDS011;6927;51.256;9.410;2023-10-09T07:34:47;1999.90;;;999.90;;
13710;SDS011;6927;51.256;9.410;2023-10-09T07:37:23;1999.90;;;999.90;;
13710;SDS011;6927;51.256;9.410;2023-10-09T07:39:51;1999.90;;;999.90;;
13710;SDS011;6927;51.256;9.410;2023-10-09T07:42:23;1999.90;;;999.90;;
13710;SDS011;6927;51.256;9.410;2023-10-09T07:45:08;1999.90;;;999.90;;
13710;SDS011;6927;51.256;9.410;2023-10-09T07:47:57;1999.90;;;999.90;;
13710;SDS011;6927;51.256;9.410;2023-10-09T07:50:28;1999.90;;;999.90;;
13710;SDS011;6927;51.256;9.410;2023-10-09T07:53:15;1999.90;;;999.90;;
13710;SDS011;6927;51.256;9.410;2023-10-09T07:55:44;1999.90;;;999.90;;
13710;SDS011;6927;51.256;9.410;2023-10-09T07:58:23;1999.90;;;999.90;;
13710;SDS011;6927;51.256;9.410;2023-10-09T08:00:53;1999.90;;;999.90;;
13710;SDS011;6927;51.256;9.410;2023-10-09T08:03:31;1999.90;;;999.90;;
13710;SDS011;6927;51.256;9.410;2023-10-09T08:05:59;1999.90;;;999.90;;
13710;SDS011;6927;51.256;9.410;2023-10-09T08:08:43;1999.90;;;999.90;;
13710;SDS011;6927;51.256;9.410;2023-10-09T08:11:29;1999.90;;;999.90;;
13710;SDS011;6927;51.256;9.410;2023-10-09T08:14:11;1999.90;;;999.90;;
13710;SDS011;6927;51.256;9.410;2023-10-09T08:16:46;1999.90;;;999.90;;
13710;SDS011;6927;51.256;9.410;2023-10-09T08:19:12;1999.90;;;999.90;;
13710;SDS011;6927;51.256;9.410;2023-10-09T08:22:07;1999.90;;;999.90;;
13710;SDS011;6927;51.256;9.410;2023-10-09T08:24:47;1999.90;;;999.90;;
13710;SDS011;6927;51.256;9.410;2023-10-09T08:27:23;1999.90;;;999.90;;
13710;SDS011;6927;51.256;9.410;2023-10-09T08:29:55;1999.90;;;999.90;;
13710;SDS011;6927;51.256;9.410;2023-10-09T08:32:42;1999.90;;;999.90;;
13710;SDS011;6927;51.256;9.410;2023-10-09T08:35:08;1999.90;;;999.90;;
13710;SDS011;6927;51.256;9.410;2023-10-09T08:37:56;1999.90;;;999.90;;
13710;SDS011;6927;51.256;9.410;2023-10-09T08:40:33;1999.90;;;999.90;;
13710;SDS011;6927;51.256;9.410;2023-10-09T08:43:18;1999.90;;;999.90;;
13710;SDS011;6927;51.256;9.410;2023-10-09T08:45:46;1999.90;;;999.90;;
13710;SDS011;6927;51.256;9.410;2023-10-09T08:48:26;1999.90;;;999.90;;
13710;SDS011;6927;51.256;9.410;2023-10-09T08:50:53;1999.90;;;999.90;;
13710;SDS011;6927;51.256;9.410;2023-10-09T08:53:20;1999.90;;;999.90;;
13710;SDS011;6927;51.256;9.410;2023-10-09T08:55:46;1999.90;;;999.90;;
13710;SDS011;6927;51.256;9.410;2023-10-09T08:58:13;1999.90;;;999.90;;
13710;SDS011;6927;51.256;9.410;2023-10-09T09:00:50;1999.90;;;999.90;;
13710;SDS011;6927;51.256;9.410;2023-10-09T09:03:17;1999.90;;;999.90;;
13710;SDS011;6927;51.256;9.410;2023-10-09T09:05:48;1999.90;;;999.90;;
13710;SDS011;6927;51.256;9.410;2023-10-09T09:08:23;1999.90;;;999.90;;
13710;SDS011;6927;51.256;9.410;2023-10-09T09:16:28;1999.90;;;999.90;;
13710;SDS011;6927;51.256;9.410;2023-10-09T09:19:04;1999.90;;;999.90;;
13710;SDS011;6927;51.256;9.410;2023-10-09T09:21:34;1999.90;;;999.90;;
13710;SDS011;6927;51.256;9.410;2023-10-09T09:24:06;1999.90;;;999.90;;
13710;SDS011;6927;51.256;9.410;2023-10-09T09:26:42;1999.90;;;999.90;;
13710;SDS011;6927;51.256;9.410;2023-10-09T09:29:14;1999.90;;;999.90;;
13710;SDS011;6927;51.256;9.410;2023-10-09T09:31:53;1999.90;;;999.90;;
13710;SDS011;6927;51.256;9.410;2023-10-09T09:34:20;1999.90;;;999.90;;
13710;SDS011;6927;51.256;9.410;2023-10-09T09:36:54;1999.90;;;999.90;;
13710;SDS011;6927;51.256;9.410;2023-10-09T09:39:23;1999.90;;;999.90;;
13710;SDS011;6927;51.256;9.410;2023-10-09T09:41:54;1999.90;;;999.90;;
13710;SDS011;6927;51.256;9.410;2023-10-09T09:44:32;1999.90;;;999.90;;
13710;SDS011;6927;51.256;9.410;2023-10-09T09:47:00;1999.90;;;999.90;;
13710;SDS011;6927;51.256;9.410;2023-10-09T09:49:29;1999.90;;;999.90;;
13710;SDS011;6927;51.256;9.410;2023-10-09T09:51:58;1999.90;;;999.90;;
13710;SDS011;6927;51.256;9.410;2023-10-09T09:54:26;1999.90;;;999.90;;
13710;SDS011;6927;51.256;9.410;2023-10-09T09:56:53;1999.90;;;999.90;;
13710;SDS011;6927;51.256;9.410;2023-10-09T09:59:21;1999.90;;;999.90;;
13710;SDS011;6927;51.256;9.410;2023-10-09T10:01:52;1999.90;;;999.90;;
13710;SDS011;6927;51.256;9.410;2023-10-09T10:04:26;1999.90;;;999.90;;
13710;SDS011;6927;51.256;9.410;2023-10-09T10:06:54;1999.90;;;999.90;;
13710;SDS011;6927;51.256;9.410;2023-10-09T10:09:41;1999.90;;;999.90;;
13710;SDS011;6927;51.256;9.410;2023-10-09T10:12:10;1999.90;;;999.90;;
13710;SDS011;6927;51.256;9.410;2023-10-09T10:17:24;1999.90;;;999.90;;
13710;SDS011;6927;51.256;9.410;2023-10-09T10:20:05;1999.90;;;999.90;;
13710;SDS011;6927;51.256;9.410;2023-10-09T10:22:40;1999.90;;;999.90;;
13710;SDS011;6927;51.256;9.410;2023-10-09T10:25:31;1999.90;;;999.90;;
13710;SDS011;6927;51.256;9.410;2023-10-09T10:28:22;1999.90;;;999.90;;
13710;SDS011;6927;51.256;9.410;2023-10-09T10:31:04;1999.90;;;999.90;;
13710;SDS011;6927;51.256;9.410;2023-10-09T10:36:20;1999.90;;;999.90;;
13710;SDS011;6927;51.256;9.410;2023-10-09T10:38:47;1999.90;;;999.90;;
13710;SDS011;6927;51.256;9.410;2023-10-09T10:41:34;1999.90;;;999.90;;
13710;SDS011;6927;51.256;9.410;2023-10-09T10:44:32;1999.90;;;999.90;;
13710;SDS011;6927;51.256;9.410;2023-10-09T10:46:59;1999.90;;;999.90;;
13710;SDS011;6927;51.256;9.410;2023-10-09T10:49:26;1999.90;;;999.90;;
13710;SDS011;6927;51.256;9.410;2023-10-09T10:52:01;1999.90;;;999.90;;
13710;SDS011;6927;51.256;9.410;2023-10-09T10:54:40;1999.90;;;999.90;;
13710;SDS011;6927;51.256;9.410;2023-10-09T10:57:21;1999.90;;;999.90;;
13710;SDS011;6927;51.256;9.410;2023-10-09T11:00:10;1999.90;;;999.90;;
13710;SDS011;6927;51.256;9.410;2023-10-09T11:02:55;1999.90;;;999.90;;
13710;SDS011;6927;51.256;9.410;2023-10-09T11:05:38;1999.90;;;999.90;;
13710;SDS011;6927;51.256;9.410;2023-10-09T11:08:08;1999.90;;;999.90;;
13710;SDS011;6927;51.256;9.410;2023-10-09T11:10:35;1999.90;;;999.90;;
13710;SDS011;6927;51.256;9.410;2023-10-09T11:13:00;1999.90;;;999.90;;
13710;SDS011;6927;51.256;9.410;2023-10-09T11:15:35;1999.90;;;999.90;;
13710;SDS011;6927;51.256;9.410;2023-10-09T11:18:12;1999.90;;;999.90;;
13710;SDS011;6927;51.256;9.410;2023-10-09T11:20:49;1999.90;;;999.90;;
13710;SDS011;6927;51.256;9.410;2023-10-09T11:23:42;1999.90;;;999.90;;
13710;SDS011;6927;51.256;9.410;2023-10-09T11:26:17;1999.90;;;999.90;;
13710;SDS011;6927;51.256;9.410;2023-10-09T11:29:06;1999.90;;;999.90;;
13710;SDS011;6927;51.256;9.410;2023-10-09T11:32:05;1999.90;;;999.90;;
13710;SDS011;6927;51.256;9.410;2023-10-09T11:34:34;1999.90;;;999.90;;
13710;SDS011;6927;51.256;9.410;2023-10-09T11:39:28;1999.90;;;999.90;;
13710;SDS011;6927;51.256;9.410;2023-10-09T11:42:04;1999.90;;;999.90;;
13710;SDS011;6927;51.256;9.410;2023-10-09T11:44:35;1999.90;;;999.90;;
13710;SDS011;6927;51.256;9.410;2023-10-09T11:47:04;1999.90;;;999.90;;
13710;SDS011;6927;51.256;9.410;2023-10-09T11:49:52;1999.90;;;999.90;;
13710;SDS011;6927;51.256;9.410;2023-10-09T11:52:25;1999.90;;;999.90;;
13710;SDS011;6927;51.256;9.410;2023-10-09T11:54:57;1999.90;;;999.90;;
13710;SDS011;6927;51.256;9.410;2023-10-09T11:57:24;1999.90;;;999.90;;
13710;SDS011;6927;51.256;9.410;2023-10-09T11:59:58;1999.90;;;999.90;;
13710;SDS011;6927;51.256;9.410;2023-10-09T12:02:35;1999.90;;;999.90;;
13710;SDS011;6927;51.256;9.410;2023-10-09T12:05:09;1999.90;;;999.90;;
13710;SDS011;6927;51.256;9.410;2023-10-09T12:07:41;1999.90;;;999.90;;
13710;SDS011;6927;51.256;9.410;2023-10-09T12:10:22;1999.90;;;999.90;;
13710;SDS011;6927;51.256;9.410;2023-10-09T12:12:51;1999.90;;;999.90;;
13710;SDS011;6927;51.256;9.410;2023-10-09T12:15:18;1999.90;;;999.90;;
13710;SDS011;6927;51.256;9.410;2023-10-09T12:17:45;1999.90;;;999.90;;
13710;SDS011;6927;51.256;9.410;2023-10-09T12:20:12;1999.90;;;999.90;;
13710;SDS011;6927;51.256;9.410;2023-10-09T12:23:07;1999.90;;;999.90;;
13710;SDS011;6927;51.256;9.410;2023-10-09T12:25:33;1999.90;;;999.90;;
13710;SDS011;6927;51.256;9.410;2023-10-09T12:28:00;1999.90;;;999.90;;
13710;SDS011;6927;51.256;9.410;2023-10-09T12:30:30;1999.90;;;999.90;;
13710;SDS011;6927;51.256;9.410;2023-10-09T12:33:03;1999.90;;;999.90;;
13710;SDS011;6927;51.256;9.410;2023-10-09T12:35:28;1999.90;;;999.90;;
13710;SDS011;6927;51.256;9.410;2023-10-09T12:37:59;1999.90;;;999.90;;
13710;SDS011;6927;51.256;9.410;2023-10-09T12:40:25;1999.90;;;999.90;;
13710;SDS011;6927;51.256;9.410;2023-10-09T12:42:54;1999.90;;;999.90;;
13710;SDS011;6927;51.256;9.410;2023-10-09T12:45:24;1999.90;;;999.90;;
13710;SDS011;6927;51.256;9.410;2023-10-09T12:47:57;1999.90;;;999.90;;
13710;SDS011;6927;51.256;9.410;2023-10-09T12:50:33;1999.90;;;999.90;;
13710;SDS011;6927;51.256;9.410;2023-10-09T12:53:00;1999.90;;;999.90;;
13710;SDS011;6927;51.256;9.410;2023-10-09T12:55:40;1999.90;;;999.90;;
13710;SDS011;6927;51.256;9.410;2023-10-09T12:58:09;1999.90;;;999.90;;
13710;SDS011;6927;51.256;9.410;2023-10-09T13:00:39;1999.90;;;999.90;;
13710;SDS011;6927;51.256;9.410;2023-10-09T13:03:18;1999.90;;;999.90;;
13710;SDS011;6927;51.256;9.410;2023-10-09T13:05:44;1999.90;;;999.90;;
13710;SDS011;6927;51.256;9.410;2023-10-09T13:08:21;1999.90;;;999.90;;
13710;SDS011;6927;51.256;9.410;2023-10-09T13:11:03;1999.90;;;999.90;;
13710;SDS011;6927;51.256;9.410;2023-10-09T13:13:35;1999.90;;;999.90;;
13710;SDS011;6927;51.256;9.410;2023-10-09T13:18:49;1999.90;;;999.90;;
13710;SDS011;6927;51.256;9.410;2023-10-09T13:21:16;1999.90;;;999.90;;
13710;SDS011;6927;51.256;9.410;2023-10-09T13:23:46;1999.90;;;999.90;;
13710;SDS011;6927;51.256;9.410;2023-10-09T13:26:15;1999.90;;;999.90;;
13710;SDS011;6927;51.256;9.410;2023-10-09T13:28:49;1999.90;;;999.90;;
13710;SDS011;6927;51.256;9.410;2023-10-09T13:31:19;1999.90;;;999.90;;
13710;SDS011;6927;51.256;9.410;2023-10-09T13:33:46;1999.90;;;999.90;;
13710;SDS011;6927;51.256;9.410;2023-10-09T13:36:13;1999.90;;;999.90;;
13710;SDS011;6927;51.256;9.410;2023-10-09T13:38:44;1999.90;;;999.90;;
13710;SDS011;6927;51.256;9.410;2023-10-09T13:41:13;1999.90;;;999.90;;
13710;SDS011;6927;51.256;9.410;2023-10-09T13:43:39;1999.90;;;999.90;;
13710;SDS011;6927;51.256;9.410;2023-10-09T13:46:09;1999.90;;;999.90;;
13710;SDS011;6927;51.256;9.410;2023-10-09T13:48:36;1999.90;;;999.90;;
13710;SDS011;6927;51.256;9.410;2023-10-09T13:51:06;1999.90;;;999.90;;
13710;SDS011;6927;51.256;9.410;2023-10-09T13:53:39;1999.90;;;999.90;;
13710;SDS011;6927;51.256;9.410;2023-10-09T13:56:14;801.50;;;757.80;;
13710;SDS011;6927;51.256;9.410;2023-10-09T13:58:43;510.83;;;489.08;;
13710;SDS011;6927;51.256;9.410;2023-10-09T14:01:16;425.55;;;408.85;;
13710;SDS011;6927;51.256;9.410;2023-10-09T14:03:53;608.00;;;580.47;;
13710;SDS011;6927;51.256;9.410;2023-10-09T14:06:19;505.20;;;484.13;;
13710;SDS011;6927;51.256;9.410;2023-10-09T14:08:55;426.77;;;409.33;;
13710;SDS011;6927;51.256;9.410;2023-10-09T14:11:21;517.30;;;495.30;;
13710;SDS011;6927;51.256;9.410;2023-10-09T14:13:47;873.10;;;811.78;;
13710;SDS011;6927;51.256;9.410;2023-10-09T14:16:13;839.25;;;785.00;;
13710;SDS011;6927;51.256;9.410;2023-10-09T14:18:55;784.03;;;742.05;;
13710;SDS011;6927;51.256;9.410;2023-10-09T14:21:28;763.17;;;723.53;;
13710;SDS011;6927;51.256;9.410;2023-10-09T14:24:03;412.17;;;393.42;;
13710;SDS011;6927;51.256;9.410;2023-10-09T14:26:40;585.97;;;548.60;;
13710;SDS011;6927;51.256;9.410;2023-10-09T14:29:12;800.10;;;752.38;;
13710;SDS011;6927;51.256;9.410;2023-10-09T14:31:44;613.60;;;582.45;;
13710;SDS011;6927;51.256;9.410;2023-10-09T14:34:24;452.25;;;431.25;;
13710;SDS011;6927;51.256;9.410;2023-10-09T14:36:57;543.85;;;515.25;;
13710;SDS011;6927;51.256;9.410;2023-10-09T14:39:25;434.05;;;412.63;;
13710;SDS011;6927;51.256;9.410;2023-10-09T14:41:52;387.48;;;369.35;;
13710;SDS011;6927;51.256;9.410;2023-10-09T14:44:19;669.35;;;627.85;;
13710;SDS011;6927;51.256;9.410;2023-10-09T14:46:45;616.80;;;582.60;;
13710;SDS011;6927;51.256;9.410;2023-10-09T14:49:11;605.50;;;573.97;;
13710;SDS011;6927;51.256;9.410;2023-10-09T14:51:39;527.50;;;500.98;;
13710;SDS011;6927;51.256;9.410;2023-10-09T14:54:04;614.17;;;579.45;;
13710;SDS011;6927;51.256;9.410;2023-10-09T14:56:32;615.97;;;579.20;;
13710;SDS011;6927;51.256;9.410;2023-10-09T14:59:01;636.97;;;596.55;;
13710;SDS011;6927;51.256;9.410;2023-10-09T15:01:28;763.88;;;710.60;;
13710;SDS011;6927;51.256;9.410;2023-10-09T15:03:57;737.45;;;693.60;;
13710;SDS011;6927;51.256;9.410;2023-10-09T15:06:25;730.90;;;684.45;;
13710;SDS011;6927;51.256;9.410;2023-10-09T15:08:53;662.28;;;623.97;;
13710;SDS011;6927;51.256;9.410;2023-10-09T15:11:24;699.65;;;660.13;;
13710;SDS011;6927;51.256;9.410;2023-10-09T15:13:54;711.67;;;671.97;;
13710;SDS011;6927;51.256;9.410;2023-10-09T15:16:22;1070.85;;;784.80;;